sensor_id;sensor_type;location;lat;lon;timestamp;temperature;humidity
4366;DHT22;2196;47.422;9.656;2023-06-26T00:01:37;20.00;99.90
4366;DHT22;2196;47.422;9.656;2023-06-26T00:04:05;20.00;99.90
4366;DHT22;2196;47.422;9.656;2023-06-26T00:06:32;20.00;99.90
4366;DHT22;2196;47.422;9.656;2023-06-26T00:09:00;20.00;99.90
4366;DHT22;2196;47.422;9.656;2023-06-26T00:11:27;19.90;99.90
4366;DHT22;2196;47.422;9.656;2023-06-26T00:13:58;20.00;99.90
4366;DHT22;2196;47.422;9.656;2023-06-26T00:16:27;19.90;99.90
4366;DHT22;2196;47.422;9.656;2023-06-26T00:18:54;19.90;99.90
4366;DHT22;2196;47.422;9.656;2023-06-26T00:21:21;19.90;99.90
4366;DHT22;2196;47.422;9.656;2023-06-26T00:23:48;19.90;99.90
4366;DHT22;2196;47.422;9.656;2023-06-26T00:26:15;19.90;99.90
4366;DHT22;2196;47.422;9.656;2023-06-26T00:28:42;19.90;99.90
4366;DHT22;2196;47.422;9.656;2023-06-26T00:31:09;19.80;99.90
4366;DHT22;2196;47.422;9.656;2023-06-26T00:33:37;19.80;99.90
4366;DHT22;2196;47.422;9.656;2023-06-26T00:36:04;19.90;99.90
4366;DHT22;2196;47.422;9.656;2023-06-26T00:38:31;19.90;99.90
4366;DHT22;2196;47.422;9.656;2023-06-26T00:40:58;19.90;99.90
4366;DHT22;2196;47.422;9.656;2023-06-26T00:43:25;19.90;99.90
4366;DHT22;2196;47.422;9.656;2023-06-26T00:45:52;19.90;99.90
4366;DHT22;2196;47.422;9.656;2023-06-26T00:48:19;19.90;99.90
4366;DHT22;2196;47.422;9.656;2023-06-26T00:50:47;20.00;99.90
4366;DHT22;2196;47.422;9.656;2023-06-26T00:53:14;20.00;99.90
4366;DHT22;2196;47.422;9.656;2023-06-26T00:55:41;20.00;99.90
4366;DHT22;2196;47.422;9.656;2023-06-26T00:58:08;20.00;99.90
4366;DHT22;2196;47.422;9.656;2023-06-26T01:00:35;20.00;99.90
4366;DHT22;2196;47.422;9.656;2023-06-26T01:03:02;20.00;99.90
4366;DHT22;2196;47.422;9.656;2023-06-26T01:05:30;20.00;99.90
4366;DHT22;2196;47.422;9.656;2023-06-26T01:07:58;19.90;99.90
4366;DHT22;2196;47.422;9.656;2023-06-26T01:10:26;19.90;99.90
4366;DHT22;2196;47.422;9.656;2023-06-26T01:12:54;19.90;99.90
4366;DHT22;2196;47.422;9.656;2023-06-26T01:15:22;20.00;99.90
4366;DHT22;2196;47.422;9.656;2023-06-26T01:17:49;19.90;99.90
4366;DHT22;2196;47.422;9.656;2023-06-26T01:20:17;19.90;99.90
4366;DHT22;2196;47.422;9.656;2023-06-26T01:22:59;19.90;99.90
4366;DHT22;2196;47.422;9.656;2023-06-26T01:25:35;19.90;99.90
4366;DHT22;2196;47.422;9.656;2023-06-26T01:28:05;19.90;99.90
4366;DHT22;2196;47.422;9.656;2023-06-26T01:30:34;19.90;99.90
4366;DHT22;2196;47.422;9.656;2023-06-26T01:33:02;19.90;99.90
4366;DHT22;2196;47.422;9.656;2023-06-26T01:35:29;19.90;99.90
4366;DHT22;2196;47.422;9.656;2023-06-26T01:38:11;19.90;99.90
4366;DHT22;2196;47.422;9.656;2023-06-26T01:40:39;19.90;99.90
4366;DHT22;2196;47.422;9.656;2023-06-26T01:43:16;20.00;99.90
4366;DHT22;2196;47.422;9.656;2023-06-26T01:45:46;19.90;99.90
4366;DHT22;2196;47.422;9.656;2023-06-26T01:48:16;19.90;99.90
4366;DHT22;2196;47.422;9.656;2023-06-26T01:50:48;19.90;99.90
4366;DHT22;2196;47.422;9.656;2023-06-26T01:53:17;20.00;99.90
4366;DHT22;2196;47.422;9.656;2023-06-26T01:55:48;20.00;99.90
4366;DHT22;2196;47.422;9.656;2023-06-26T01:58:20;20.00;99.90
4366;DHT22;2196;47.422;9.656;2023-06-26T02:00:49;20.00;99.90
4366;DHT22;2196;47.422;9.656;2023-06-26T02:03:16;19.90;99.90
4366;DHT22;2196;47.422;9.656;2023-06-26T02:05:43;19.90;99.90
4366;DHT22;2196;47.422;9.656;2023-06-26T02:08:13;19.90;99.90
4366;DHT22;2196;47.422;9.656;2023-06-26T02:10:40;19.90;99.90
4366;DHT22;2196;47.422;9.656;2023-06-26T02:13:07;20.00;99.90
4366;DHT22;2196;47.422;9.656;2023-06-26T02:15:36;20.00;99.90
4366;DHT22;2196;47.422;9.656;2023-06-26T02:18:03;20.00;99.90
4366;DHT22;2196;47.422;9.656;2023-06-26T02:20:29;20.00;99.90
4366;DHT22;2196;47.422;9.656;2023-06-26T02:22:57;20.00;99.90
4366;DHT22;2196;47.422;9.656;2023-06-26T02:25:24;20.00;99.90
4366;DHT22;2196;47.422;9.656;2023-06-26T02:27:51;19.90;99.90
4366;DHT22;2196;47.422;9.656;2023-06-26T02:30:18;19.90;99.90
4366;DHT22;2196;47.422;9.656;2023-06-26T02:32:46;19.90;99.90
4366;DHT22;2196;47.422;9.656;2023-06-26T02:35:13;19.80;99.90
4366;DHT22;2196;47.422;9.656;2023-06-26T02:37:40;19.80;99.90
4366;DHT22;2196;47.422;9.656;2023-06-26T02:40:08;19.80;99.90
4366;DHT22;2196;47.422;9.656;2023-06-26T02:42:36;19.80;99.90
4366;DHT22;2196;47.422;9.656;2023-06-26T02:45:04;19.80;99.90
4366;DHT22;2196;47.422;9.656;2023-06-26T02:47:31;19.80;99.90
4366;DHT22;2196;47.422;9.656;2023-06-26T02:49:59;19.80;99.90
4366;DHT22;2196;47.422;9.656;2023-06-26T02:52:26;19.80;99.90
4366;DHT22;2196;47.422;9.656;2023-06-26T02:54:54;19.80;99.90
4366;DHT22;2196;47.422;9.656;2023-06-26T02:57:21;19.90;99.90
4366;DHT22;2196;47.422;9.656;2023-06-26T02:59:48;19.80;99.90
4366;DHT22;2196;47.422;9.656;2023-06-26T03:02:15;19.80;99.90
4366;DHT22;2196;47.422;9.656;2023-06-26T03:04:42;19.90;99.90
4366;DHT22;2196;47.422;9.656;2023-06-26T03:07:10;19.90;99.90
4366;DHT22;2196;47.422;9.656;2023-06-26T03:09:37;20.00;99.90
4366;DHT22;2196;47.422;9.656;2023-06-26T03:12:04;20.00;99.90
4366;DHT22;2196;47.422;9.656;2023-06-26T03:14:31;19.90;99.90
4366;DHT22;2196;47.422;9.656;2023-06-26T03:16:58;19.90;99.90
4366;DHT22;2196;47.422;9.656;2023-06-26T03:19:29;19.90;99.90
4366;DHT22;2196;47.422;9.656;2023-06-26T03:21:56;19.80;99.90
4366;DHT22;2196;47.422;9.656;2023-06-26T03:24:24;19.90;99.90
4366;DHT22;2196;47.422;9.656;2023-06-26T03:26:51;19.90;99.90
4366;DHT22;2196;47.422;9.656;2023-06-26T03:29:18;19.90;99.90
4366;DHT22;2196;47.422;9.656;2023-06-26T03:31:45;19.90;99.90
4366;DHT22;2196;47.422;9.656;2023-06-26T03:34:12;19.90;99.90
4366;DHT22;2196;47.422;9.656;2023-06-26T03:36:39;19.90;99.90
4366;DHT22;2196;47.422;9.656;2023-06-26T03:39:07;19.90;99.90
4366;DHT22;2196;47.422;9.656;2023-06-26T03:41:35;19.90;99.90
4366;DHT22;2196;47.422;9.656;2023-06-26T03:44:02;20.00;99.90
4366;DHT22;2196;47.422;9.656;2023-06-26T03:46:29;20.00;99.90
4366;DHT22;2196;47.422;9.656;2023-06-26T03:48:56;20.00;99.90
4366;DHT22;2196;47.422;9.656;2023-06-26T03:51:23;20.00;99.90
4366;DHT22;2196;47.422;9.656;2023-06-26T03:53:50;20.00;99.90
4366;DHT22;2196;47.422;9.656;2023-06-26T03:56:17;20.00;99.90
4366;DHT22;2196;47.422;9.656;2023-06-26T03:58:45;20.00;99.90
4366;DHT22;2196;47.422;9.656;2023-06-26T04:01:12;19.90;99.90
4366;DHT22;2196;47.422;9.656;2023-06-26T04:03:39;19.90;99.90
4366;DHT22;2196;47.422;9.656;2023-06-26T04:06:06;19.90;99.90
4366;DHT22;2196;47.422;9.656;2023-06-26T04:08:33;19.90;99.90
4366;DHT22;2196;47.422;9.656;2023-06-26T04:11:00;19.90;99.90
4366;DHT22;2196;47.422;9.656;2023-06-26T04:13:27;19.90;99.90
4366;DHT22;2196;47.422;9.656;2023-06-26T04:15:56;20.00;99.90
4366;DHT22;2196;47.422;9.656;2023-06-26T04:18:23;20.10;99.90
4366;DHT22;2196;47.422;9.656;2023-06-26T04:21:07;20.10;99.90
4366;DHT22;2196;47.422;9.656;2023-06-26T04:23:35;20.10;99.90
4366;DHT22;2196;47.422;9.656;2023-06-26T04:26:03;20.10;99.90
4366;DHT22;2196;47.422;9.656;2023-06-26T04:28:30;20.30;99.90
4366;DHT22;2196;47.422;9.656;2023-06-26T04:30:59;20.30;99.90
4366;DHT22;2196;47.422;9.656;2023-06-26T04:33:27;20.20;99.90
4366;DHT22;2196;47.422;9.656;2023-06-26T04:35:54;20.20;99.90
4366;DHT22;2196;47.422;9.656;2023-06-26T04:38:21;20.20;99.90
4366;DHT22;2196;47.422;9.656;2023-06-26T04:40:48;20.30;99.90
4366;DHT22;2196;47.422;9.656;2023-06-26T04:43:15;20.40;99.90
4366;DHT22;2196;47.422;9.656;2023-06-26T04:45:42;20.40;99.90
4366;DHT22;2196;47.422;9.656;2023-06-26T04:48:11;20.50;99.90
4366;DHT22;2196;47.422;9.656;2023-06-26T04:50:37;20.50;99.90
4366;DHT22;2196;47.422;9.656;2023-06-26T04:53:04;20.70;99.90
4366;DHT22;2196;47.422;9.656;2023-06-26T04:55:31;20.70;99.90
4366;DHT22;2196;47.422;9.656;2023-06-26T04:57:58;20.90;99.90
4366;DHT22;2196;47.422;9.656;2023-06-26T05:00:25;21.00;99.90
4366;DHT22;2196;47.422;9.656;2023-06-26T05:02:53;21.20;99.90
4366;DHT22;2196;47.422;9.656;2023-06-26T05:05:27;21.20;99.90
4366;DHT22;2196;47.422;9.656;2023-06-26T05:07:55;21.40;99.90
4366;DHT22;2196;47.422;9.656;2023-06-26T05:10:22;21.60;99.90
4366;DHT22;2196;47.422;9.656;2023-06-26T05:12:49;21.70;99.90
4366;DHT22;2196;47.422;9.656;2023-06-26T05:15:16;21.90;99.90
4366;DHT22;2196;47.422;9.656;2023-06-26T05:17:43;22.10;99.90
4366;DHT22;2196;47.422;9.656;2023-06-26T05:20:11;22.50;99.90
4366;DHT22;2196;47.422;9.656;2023-06-26T05:22:39;23.20;99.90
4366;DHT22;2196;47.422;9.656;2023-06-26T05:25:09;23.80;99.90
4366;DHT22;2196;47.422;9.656;2023-06-26T05:27:37;24.30;99.90
4366;DHT22;2196;47.422;9.656;2023-06-26T05:30:05;25.00;99.90
4366;DHT22;2196;47.422;9.656;2023-06-26T05:32:34;25.60;99.90
4366;DHT22;2196;47.422;9.656;2023-06-26T05:35:02;26.20;99.90
4366;DHT22;2196;47.422;9.656;2023-06-26T05:37:31;26.70;99.90
4366;DHT22;2196;47.422;9.656;2023-06-26T05:40:01;27.40;99.90
4366;DHT22;2196;47.422;9.656;2023-06-26T05:42:31;27.30;99.90
4366;DHT22;2196;47.422;9.656;2023-06-26T05:44:59;27.20;99.90
4366;DHT22;2196;47.422;9.656;2023-06-26T05:47:26;27.20;99.90
4366;DHT22;2196;47.422;9.656;2023-06-26T05:49:53;27.50;99.90
4366;DHT22;2196;47.422;9.656;2023-06-26T05:52:20;27.70;99.90
4366;DHT22;2196;47.422;9.656;2023-06-26T05:54:48;28.10;99.90
4366;DHT22;2196;47.422;9.656;2023-06-26T05:57:16;28.50;99.90
4366;DHT22;2196;47.422;9.656;2023-06-26T05:59:44;28.40;99.90
4366;DHT22;2196;47.422;9.656;2023-06-26T06:02:11;28.50;99.90
4366;DHT22;2196;47.422;9.656;2023-06-26T06:04:39;28.30;99.90
4366;DHT22;2196;47.422;9.656;2023-06-26T06:07:05;28.50;99.90
4366;DHT22;2196;47.422;9.656;2023-06-26T06:09:32;29.00;99.90
4366;DHT22;2196;47.422;9.656;2023-06-26T06:12:00;29.30;99.90
4366;DHT22;2196;47.422;9.656;2023-06-26T06:14:30;29.60;99.90
4366;DHT22;2196;47.422;9.656;2023-06-26T06:16:58;30.00;99.90
4366;DHT22;2196;47.422;9.656;2023-06-26T06:19:25;30.60;99.90
4366;DHT22;2196;47.422;9.656;2023-06-26T06:21:52;30.90;99.90
4366;DHT22;2196;47.422;9.656;2023-06-26T06:24:19;30.90;99.90
4366;DHT22;2196;47.422;9.656;2023-06-26T06:26:46;30.80;99.90
4366;DHT22;2196;47.422;9.656;2023-06-26T06:29:14;30.80;99.90
4366;DHT22;2196;47.422;9.656;2023-06-26T06:31:43;30.70;99.90
4366;DHT22;2196;47.422;9.656;2023-06-26T06:34:10;30.80;99.90
4366;DHT22;2196;47.422;9.656;2023-06-26T06:36:37;30.80;99.90
4366;DHT22;2196;47.422;9.656;2023-06-26T06:39:04;31.30;99.90
4366;DHT22;2196;47.422;9.656;2023-06-26T06:41:31;31.60;99.50
4366;DHT22;2196;47.422;9.656;2023-06-26T06:44:01;31.60;99.80
4366;DHT22;2196;47.422;9.656;2023-06-26T06:46:28;31.30;99.20
4366;DHT22;2196;47.422;9.656;2023-06-26T06:48:57;31.10;99.60
4366;DHT22;2196;47.422;9.656;2023-06-26T06:51:23;31.30;99.30
4366;DHT22;2196;47.422;9.656;2023-06-26T06:53:50;31.00;99.90
4366;DHT22;2196;47.422;9.656;2023-06-26T06:56:17;31.50;99.90
4366;DHT22;2196;47.422;9.656;2023-06-26T06:58:44;32.00;99.80
4366;DHT22;2196;47.422;9.656;2023-06-26T07:01:11;32.40;98.00
4366;DHT22;2196;47.422;9.656;2023-06-26T07:03:39;32.50;99.80
4366;DHT22;2196;47.422;9.656;2023-06-26T07:06:07;33.30;98.10
4366;DHT22;2196;47.422;9.656;2023-06-26T07:08:34;33.40;98.40
4366;DHT22;2196;47.422;9.656;2023-06-26T07:11:01;33.50;96.60
4366;DHT22;2196;47.422;9.656;2023-06-26T07:13:28;33.10;96.00
4366;DHT22;2196;47.422;9.656;2023-06-26T07:15:55;33.20;97.00
4366;DHT22;2196;47.422;9.656;2023-06-26T07:18:22;33.00;96.90
4366;DHT22;2196;47.422;9.656;2023-06-26T07:20:49;33.40;96.10
4366;DHT22;2196;47.422;9.656;2023-06-26T07:23:17;33.70;97.90
4366;DHT22;2196;47.422;9.656;2023-06-26T07:25:45;33.60;95.50
4366;DHT22;2196;47.422;9.656;2023-06-26T07:28:12;32.50;96.10
4366;DHT22;2196;47.422;9.656;2023-06-26T07:30:39;31.60;96.30
4366;DHT22;2196;47.422;9.656;2023-06-26T07:33:06;31.90;98.40
4366;DHT22;2196;47.422;9.656;2023-06-26T07:35:33;32.30;96.60
4366;DHT22;2196;47.422;9.656;2023-06-26T07:38:00;33.00;97.10
4366;DHT22;2196;47.422;9.656;2023-06-26T07:40:28;33.70;95.60
4366;DHT22;2196;47.422;9.656;2023-06-26T07:42:55;34.40;94.60
4366;DHT22;2196;47.422;9.656;2023-06-26T07:45:23;34.50;94.00
4366;DHT22;2196;47.422;9.656;2023-06-26T07:47:50;34.60;92.40
4366;DHT22;2196;47.422;9.656;2023-06-26T07:50:17;34.70;92.50
4366;DHT22;2196;47.422;9.656;2023-06-26T07:52:48;34.00;93.00
4366;DHT22;2196;47.422;9.656;2023-06-26T07:55:15;34.00;92.90
4366;DHT22;2196;47.422;9.656;2023-06-26T07:57:43;34.50;95.80
4366;DHT22;2196;47.422;9.656;2023-06-26T08:00:11;34.60;92.60
4366;DHT22;2196;47.422;9.656;2023-06-26T08:02:38;35.10;91.40
4366;DHT22;2196;47.422;9.656;2023-06-26T08:05:05;35.40;92.20
4366;DHT22;2196;47.422;9.656;2023-06-26T08:07:33;35.40;91.40
4366;DHT22;2196;47.422;9.656;2023-06-26T08:09:59;35.30;94.50
4366;DHT22;2196;47.422;9.656;2023-06-26T08:12:26;35.60;92.70
4366;DHT22;2196;47.422;9.656;2023-06-26T08:14:55;35.90;91.30
4366;DHT22;2196;47.422;9.656;2023-06-26T08:17:22;35.90;91.30
4366;DHT22;2196;47.422;9.656;2023-06-26T08:19:49;36.10;90.30
4366;DHT22;2196;47.422;9.656;2023-06-26T08:22:16;36.20;91.20
4366;DHT22;2196;47.422;9.656;2023-06-26T08:24:43;36.10;87.20
4366;DHT22;2196;47.422;9.656;2023-06-26T08:27:10;36.30;89.00
4366;DHT22;2196;47.422;9.656;2023-06-26T08:29:37;36.20;90.60
4366;DHT22;2196;47.422;9.656;2023-06-26T08:32:06;36.30;91.80
4366;DHT22;2196;47.422;9.656;2023-06-26T08:34:33;36.40;90.40
4366;DHT22;2196;47.422;9.656;2023-06-26T08:37:00;36.40;87.30
4366;DHT22;2196;47.422;9.656;2023-06-26T08:39:26;36.90;90.80
4366;DHT22;2196;47.422;9.656;2023-06-26T08:41:54;37.10;87.80
4366;DHT22;2196;47.422;9.656;2023-06-26T08:44:21;37.40;90.10
4366;DHT22;2196;47.422;9.656;2023-06-26T08:46:50;37.20;91.20
4366;DHT22;2196;47.422;9.656;2023-06-26T08:49:21;37.10;84.10
4366;DHT22;2196;47.422;9.656;2023-06-26T08:51:55;37.30;84.70
4366;DHT22;2196;47.422;9.656;2023-06-26T08:54:27;37.20;85.00
4366;DHT22;2196;47.422;9.656;2023-06-26T08:56:56;37.50;85.80
4366;DHT22;2196;47.422;9.656;2023-06-26T08:59:24;37.90;80.80
4366;DHT22;2196;47.422;9.656;2023-06-26T09:01:51;37.80;84.00
4366;DHT22;2196;47.422;9.656;2023-06-26T09:04:20;37.80;81.80
4366;DHT22;2196;47.422;9.656;2023-06-26T09:06:47;37.70;88.80
4366;DHT22;2196;47.422;9.656;2023-06-26T09:09:13;37.60;83.70
4366;DHT22;2196;47.422;9.656;2023-06-26T09:11:40;37.60;89.10
4366;DHT22;2196;47.422;9.656;2023-06-26T09:14:07;37.40;82.60
4366;DHT22;2196;47.422;9.656;2023-06-26T09:16:39;37.50;84.40
4366;DHT22;2196;47.422;9.656;2023-06-26T09:19:09;37.60;86.20
4366;DHT22;2196;47.422;9.656;2023-06-26T09:21:39;37.90;77.10
4366;DHT22;2196;47.422;9.656;2023-06-26T09:24:07;37.50;83.40
4366;DHT22;2196;47.422;9.656;2023-06-26T09:26:37;36.70;89.60
4366;DHT22;2196;47.422;9.656;2023-06-26T09:29:04;35.50;82.00
4366;DHT22;2196;47.422;9.656;2023-06-26T09:31:32;34.60;85.20
4366;DHT22;2196;47.422;9.656;2023-06-26T09:34:00;35.20;87.70
4366;DHT22;2196;47.422;9.656;2023-06-26T09:36:28;35.70;87.20
4366;DHT22;2196;47.422;9.656;2023-06-26T09:39:00;36.40;84.50
4366;DHT22;2196;47.422;9.656;2023-06-26T09:41:27;36.80;79.60
4366;DHT22;2196;47.422;9.656;2023-06-26T09:43:58;36.60;84.60
4366;DHT22;2196;47.422;9.656;2023-06-26T09:46:28;36.90;82.10
4366;DHT22;2196;47.422;9.656;2023-06-26T09:49:00;37.00;79.70
4366;DHT22;2196;47.422;9.656;2023-06-26T09:51:29;36.70;83.20
4366;DHT22;2196;47.422;9.656;2023-06-26T09:53:58;35.90;83.00
4366;DHT22;2196;47.422;9.656;2023-06-26T09:56:26;36.00;85.10
4366;DHT22;2196;47.422;9.656;2023-06-26T09:58:55;35.80;88.40
4366;DHT22;2196;47.422;9.656;2023-06-26T10:01:23;35.20;84.40
4366;DHT22;2196;47.422;9.656;2023-06-26T10:03:50;35.50;87.10
4366;DHT22;2196;47.422;9.656;2023-06-26T10:06:19;35.60;88.70
4366;DHT22;2196;47.422;9.656;2023-06-26T10:08:49;35.60;90.50
4366;DHT22;2196;47.422;9.656;2023-06-26T10:11:21;35.00;90.00
4366;DHT22;2196;47.422;9.656;2023-06-26T10:13:51;34.20;90.20
4366;DHT22;2196;47.422;9.656;2023-06-26T10:16:23;33.80;91.50
4366;DHT22;2196;47.422;9.656;2023-06-26T10:18:53;33.70;91.20
4366;DHT22;2196;47.422;9.656;2023-06-26T10:21:20;33.90;90.90
4366;DHT22;2196;47.422;9.656;2023-06-26T10:23:50;33.90;91.60
4366;DHT22;2196;47.422;9.656;2023-06-26T10:26:21;33.40;91.80
4366;DHT22;2196;47.422;9.656;2023-06-26T10:28:49;32.20;93.10
4366;DHT22;2196;47.422;9.656;2023-06-26T10:31:19;31.40;93.30
4366;DHT22;2196;47.422;9.656;2023-06-26T10:33:47;30.90;93.80
4366;DHT22;2196;47.422;9.656;2023-06-26T10:36:15;31.40;93.50
4366;DHT22;2196;47.422;9.656;2023-06-26T10:38:50;32.30;92.70
4366;DHT22;2196;47.422;9.656;2023-06-26T10:41:21;32.70;91.50
4366;DHT22;2196;47.422;9.656;2023-06-26T10:43:50;33.60;94.90
4366;DHT22;2196;47.422;9.656;2023-06-26T10:46:18;33.50;86.70
4366;DHT22;2196;47.422;9.656;2023-06-26T10:48:58;33.50;91.20
4366;DHT22;2196;47.422;9.656;2023-06-26T10:51:26;33.50;91.70
4366;DHT22;2196;47.422;9.656;2023-06-26T10:53:56;33.00;91.10
4366;DHT22;2196;47.422;9.656;2023-06-26T10:56:43;32.80;91.70
4366;DHT22;2196;47.422;9.656;2023-06-26T10:59:18;32.80;92.20
4366;DHT22;2196;47.422;9.656;2023-06-26T11:01:46;32.60;90.30
4366;DHT22;2196;47.422;9.656;2023-06-26T11:04:14;32.50;92.30
4366;DHT22;2196;47.422;9.656;2023-06-26T11:06:46;32.20;90.50
4366;DHT22;2196;47.422;9.656;2023-06-26T11:09:17;32.00;92.10
4366;DHT22;2196;47.422;9.656;2023-06-26T11:12:01;32.20;91.50
4366;DHT22;2196;47.422;9.656;2023-06-26T11:14:34;32.70;92.10
4366;DHT22;2196;47.422;9.656;2023-06-26T11:17:05;33.00;94.30
4366;DHT22;2196;47.422;9.656;2023-06-26T11:19:32;33.30;92.60
4366;DHT22;2196;47.422;9.656;2023-06-26T11:22:03;33.30;92.00
4366;DHT22;2196;47.422;9.656;2023-06-26T11:24:31;32.70;88.70
4366;DHT22;2196;47.422;9.656;2023-06-26T11:27:04;32.40;92.00
4366;DHT22;2196;47.422;9.656;2023-06-26T11:29:32;31.80;91.20
4366;DHT22;2196;47.422;9.656;2023-06-26T11:32:03;31.80;92.50
4366;DHT22;2196;47.422;9.656;2023-06-26T11:34:33;31.60;91.00
4366;DHT22;2196;47.422;9.656;2023-06-26T11:37:00;31.60;93.90
4366;DHT22;2196;47.422;9.656;2023-06-26T11:39:30;31.50;92.80
4366;DHT22;2196;47.422;9.656;2023-06-26T11:41:58;31.80;91.60
4366;DHT22;2196;47.422;9.656;2023-06-26T11:44:29;31.60;90.00
4366;DHT22;2196;47.422;9.656;2023-06-26T11:46:57;31.30;88.70
4366;DHT22;2196;47.422;9.656;2023-06-26T11:49:24;30.90;85.20
4366;DHT22;2196;47.422;9.656;2023-06-26T11:51:52;30.90;89.60
4366;DHT22;2196;47.422;9.656;2023-06-26T11:54:25;30.90;91.70
4366;DHT22;2196;47.422;9.656;2023-06-26T11:56:56;31.00;90.70
4366;DHT22;2196;47.422;9.656;2023-06-26T11:59:24;31.10;92.20
4366;DHT22;2196;47.422;9.656;2023-06-26T12:01:54;31.10;91.70
4366;DHT22;2196;47.422;9.656;2023-06-26T12:04:21;31.40;91.20
4366;DHT22;2196;47.422;9.656;2023-06-26T12:06:50;31.50;91.70
4366;DHT22;2196;47.422;9.656;2023-06-26T12:09:18;31.40;89.80
4366;DHT22;2196;47.422;9.656;2023-06-26T12:11:48;31.20;92.40
4366;DHT22;2196;47.422;9.656;2023-06-26T12:14:15;31.50;91.70
4366;DHT22;2196;47.422;9.656;2023-06-26T12:16:43;31.40;88.90
4366;DHT22;2196;47.422;9.656;2023-06-26T12:19:12;31.40;89.00
4366;DHT22;2196;47.422;9.656;2023-06-26T12:21:47;31.60;93.00
4366;DHT22;2196;47.422;9.656;2023-06-26T12:24:19;31.70;89.60
4366;DHT22;2196;47.422;9.656;2023-06-26T12:26:47;31.80;92.00
4366;DHT22;2196;47.422;9.656;2023-06-26T12:29:18;31.60;88.50
4366;DHT22;2196;47.422;9.656;2023-06-26T12:31:48;31.50;90.30
4366;DHT22;2196;47.422;9.656;2023-06-26T12:34:18;31.50;90.20
4366;DHT22;2196;47.422;9.656;2023-06-26T12:36:47;31.10;90.40
4366;DHT22;2196;47.422;9.656;2023-06-26T12:39:16;31.20;90.40
4366;DHT22;2196;47.422;9.656;2023-06-26T12:41:47;30.90;86.90
4366;DHT22;2196;47.422;9.656;2023-06-26T12:44:18;30.90;90.10
4366;DHT22;2196;47.422;9.656;2023-06-26T12:46:46;30.70;89.50
4366;DHT22;2196;47.422;9.656;2023-06-26T12:49:14;30.80;91.30
4366;DHT22;2196;47.422;9.656;2023-06-26T12:51:42;30.80;90.60
4366;DHT22;2196;47.422;9.656;2023-06-26T12:54:09;30.80;90.00
4366;DHT22;2196;47.422;9.656;2023-06-26T12:56:36;30.80;91.10
4366;DHT22;2196;47.422;9.656;2023-06-26T12:59:03;30.80;90.20
4366;DHT22;2196;47.422;9.656;2023-06-26T13:01:30;31.00;90.50
4366;DHT22;2196;47.422;9.656;2023-06-26T13:03:58;31.20;89.90
4366;DHT22;2196;47.422;9.656;2023-06-26T13:06:25;31.40;91.00
4366;DHT22;2196;47.422;9.656;2023-06-26T13:08:53;31.60;89.70
4366;DHT22;2196;47.422;9.656;2023-06-26T13:11:20;31.80;85.50
4366;DHT22;2196;47.422;9.656;2023-06-26T13:13:48;31.70;88.20
4366;DHT22;2196;47.422;9.656;2023-06-26T13:16:15;31.60;89.40
4366;DHT22;2196;47.422;9.656;2023-06-26T13:18:44;31.60;89.80
4366;DHT22;2196;47.422;9.656;2023-06-26T13:21:11;31.60;88.80
4366;DHT22;2196;47.422;9.656;2023-06-26T13:23:38;31.60;85.50
4366;DHT22;2196;47.422;9.656;2023-06-26T13:26:06;31.40;83.60
4366;DHT22;2196;47.422;9.656;2023-06-26T13:28:33;31.40;88.10
4366;DHT22;2196;47.422;9.656;2023-06-26T13:31:00;31.50;89.40
4366;DHT22;2196;47.422;9.656;2023-06-26T13:33:27;31.60;87.90
4366;DHT22;2196;47.422;9.656;2023-06-26T13:35:54;31.60;88.20
4366;DHT22;2196;47.422;9.656;2023-06-26T13:38:22;31.50;86.20
4366;DHT22;2196;47.422;9.656;2023-06-26T13:40:51;31.40;88.80
4366;DHT22;2196;47.422;9.656;2023-06-26T13:43:21;31.30;86.90
4366;DHT22;2196;47.422;9.656;2023-06-26T13:45:48;31.40;87.60
4366;DHT22;2196;47.422;9.656;2023-06-26T13:48:15;31.30;84.60
4366;DHT22;2196;47.422;9.656;2023-06-26T13:50:42;31.30;86.90
4366;DHT22;2196;47.422;9.656;2023-06-26T13:53:09;31.40;90.00
4366;DHT22;2196;47.422;9.656;2023-06-26T13:55:36;31.60;89.90
4366;DHT22;2196;47.422;9.656;2023-06-26T13:58:04;31.60;90.00
4366;DHT22;2196;47.422;9.656;2023-06-26T14:00:33;31.70;86.90
4366;DHT22;2196;47.422;9.656;2023-06-26T14:03:00;31.70;87.20
4366;DHT22;2196;47.422;9.656;2023-06-26T14:05:28;31.80;89.30
4366;DHT22;2196;47.422;9.656;2023-06-26T14:07:55;31.90;86.60
4366;DHT22;2196;47.422;9.656;2023-06-26T14:10:23;31.90;85.00
4366;DHT22;2196;47.422;9.656;2023-06-26T14:12:50;31.80;83.30
4366;DHT22;2196;47.422;9.656;2023-06-26T14:15:17;31.60;81.80
4366;DHT22;2196;47.422;9.656;2023-06-26T14:17:45;31.60;84.90
4366;DHT22;2196;47.422;9.656;2023-06-26T14:20:13;31.80;89.70
4366;DHT22;2196;47.422;9.656;2023-06-26T14:22:40;31.80;82.40
4366;DHT22;2196;47.422;9.656;2023-06-26T14:25:07;31.90;85.00
4366;DHT22;2196;47.422;9.656;2023-06-26T14:27:35;31.80;84.80
4366;DHT22;2196;47.422;9.656;2023-06-26T14:30:03;31.80;88.50
4366;DHT22;2196;47.422;9.656;2023-06-26T14:32:30;31.80;87.50
4366;DHT22;2196;47.422;9.656;2023-06-26T14:34:59;31.70;85.60
4366;DHT22;2196;47.422;9.656;2023-06-26T14:37:26;31.70;83.00
4366;DHT22;2196;47.422;9.656;2023-06-26T14:39:57;31.70;85.50
4366;DHT22;2196;47.422;9.656;2023-06-26T14:42:24;31.60;83.70
4366;DHT22;2196;47.422;9.656;2023-06-26T14:44:51;31.60;84.80
4366;DHT22;2196;47.422;9.656;2023-06-26T14:47:18;31.50;87.80
4366;DHT22;2196;47.422;9.656;2023-06-26T14:49:45;31.40;89.20
4366;DHT22;2196;47.422;9.656;2023-06-26T14:52:13;31.20;92.00
4366;DHT22;2196;47.422;9.656;2023-06-26T14:54:40;31.00;91.80
4366;DHT22;2196;47.422;9.656;2023-06-26T14:57:07;30.70;92.80
4366;DHT22;2196;47.422;9.656;2023-06-26T14:59:34;30.60;93.70
4366;DHT22;2196;47.422;9.656;2023-06-26T15:02:01;30.60;94.50
4366;DHT22;2196;47.422;9.656;2023-06-26T15:04:29;30.50;94.70
4366;DHT22;2196;47.422;9.656;2023-06-26T15:06:57;30.50;94.20
4366;DHT22;2196;47.422;9.656;2023-06-26T15:09:25;30.30;94.60
4366;DHT22;2196;47.422;9.656;2023-06-26T15:11:52;30.20;94.70
4366;DHT22;2196;47.422;9.656;2023-06-26T15:14:19;30.20;94.30
4366;DHT22;2196;47.422;9.656;2023-06-26T15:16:46;30.20;94.70
4366;DHT22;2196;47.422;9.656;2023-06-26T15:19:13;30.20;95.00
4366;DHT22;2196;47.422;9.656;2023-06-26T15:21:40;30.30;95.40
4366;DHT22;2196;47.422;9.656;2023-06-26T15:24:07;30.30;95.90
4366;DHT22;2196;47.422;9.656;2023-06-26T15:26:35;30.30;94.00
4366;DHT22;2196;47.422;9.656;2023-06-26T15:29:03;30.20;94.70
4366;DHT22;2196;47.422;9.656;2023-06-26T15:31:30;30.20;95.60
4366;DHT22;2196;47.422;9.656;2023-06-26T15:33:57;30.10;94.80
4366;DHT22;2196;47.422;9.656;2023-06-26T15:36:24;30.10;95.80
4366;DHT22;2196;47.422;9.656;2023-06-26T15:38:51;30.10;95.70
4366;DHT22;2196;47.422;9.656;2023-06-26T15:41:18;30.00;95.50
4366;DHT22;2196;47.422;9.656;2023-06-26T15:43:46;29.80;96.30
4366;DHT22;2196;47.422;9.656;2023-06-26T15:46:13;29.70;95.20
4366;DHT22;2196;47.422;9.656;2023-06-26T15:48:41;29.70;95.00
4366;DHT22;2196;47.422;9.656;2023-06-26T15:51:07;29.70;95.50
4366;DHT22;2196;47.422;9.656;2023-06-26T15:53:35;29.70;95.50
4366;DHT22;2196;47.422;9.656;2023-06-26T15:56:05;29.70;95.40
4366;DHT22;2196;47.422;9.656;2023-06-26T15:58:32;29.70;95.70
4366;DHT22;2196;47.422;9.656;2023-06-26T16:01:01;29.70;96.10
4366;DHT22;2196;47.422;9.656;2023-06-26T16:03:28;29.60;95.50
4366;DHT22;2196;47.422;9.656;2023-06-26T16:05:56;29.50;96.10
4366;DHT22;2196;47.422;9.656;2023-06-26T16:08:23;29.50;96.00